Weather reports worldwide

Advertisment
Quintanar De La Orden, Spain (8275): temperature & dewpoint: 08.11.2018 13:00:00 - 14.11.2018 13:00:00 (CET)Quintanar De La Orden, Spain (8275): wind speed & gusts: 08.11.2018 13:00:00 - 14.11.2018 13:00:00 (CET)Quintanar De La Orden, Spain (8275): wind direction: 08.11.2018 13:00:00 - 14.11.2018 13:00:00 (CET)Quintanar De La Orden, Spain (8275): reduced air pressure: 08.11.2018 13:00:00 - 14.11.2018 13:00:00 (CET)Quintanar De La Orden, Spain (8275): precipitation: 08.11.2018 13:00:00 - 14.11.2018 13:00:00 (CET)
Date & Time tt [°C] td [°C] ff [km/h] ff [kn] fx [km/h] fx [kn] dd ppp [hPa] rr [mm]
14.11.2018 13:00:00 - - - - - - - - -
14.11.2018 12:00:00 - - 14 7 34 19 SSE - 0,0
14.11.2018 11:00:00 - - 16 8 32 18 SSE - 0,0
14.11.2018 10:00:00 13,2 10,8 10 5 34 18 SSE 1014,1 0,0
14.11.2018 09:00:00 12,3 10,2 9 5 22 12 SSE 1014,4 0,0
14.11.2018 08:00:00 11,4 9,4 4 2 20 11 S 1014,7 0,0
14.11.2018 07:00:00 11,5 9,4 7 4 24 13 SSE 1014,7 -
14.11.2018 06:00:00 11,6 9,6 9 5 32 18 SE 1014,8 0,0
14.11.2018 05:00:00 11,5 9,4 5 3 23 12 SE 1014,8 0,0
14.11.2018 04:00:00 11,7 9,6 7 4 27 15 SE 1014,6 0,0
14.11.2018 03:00:00 11,5 9,4 9 5 25 13 SE 1014,7 0,0
14.11.2018 02:00:00 11,6 9,3 5 3 24 13 SE 1014,7 0,0
14.11.2018 01:00:00 11,7 8,8 4 2 14 8 SSE 1014,5 -
14.11.2018 00:00:00 12,1 8,9 3 2 13 7 SSE 1014,6 0,0
13.11.2018 23:00:00 12,2 9,0 4 2 19 11 SE 1014,4 0,0
13.11.2018 22:00:00 12,5 8,9 1 0 9 5 SE 1014,4 0,0
13.11.2018 21:00:00 - - 3 2 16 9 SE - 0,0
13.11.2018 20:00:00 - - 3 1 18 10 E - 0,0
13.11.2018 19:00:00 - - 4 2 12 7 E - -
13.11.2018 18:00:00 - - 2 1 14 8 ESE - 0,0
13.11.2018 17:00:00 - - 3 1 25 13 ESE - 0,0
13.11.2018 16:00:00 17,0 7,8 5 3 29 16 ESE 1013,1 0,0
13.11.2018 15:00:00 17,8 8,1 6 4 25 13 SE 1012,8 0,0
13.11.2018 14:00:00 - - 10 6 24 13 SSE - 0,0
13.11.2018 13:00:00 18,0 8,5 4 2 21 12 SE 1012,8 -
13.11.2018 12:00:00 16,8 8,5 6 3 23 12 SE 1013,1 0,0
13.11.2018 11:00:00 15,2 8,3 4 2 19 10 SE 1013,6 0,0
13.11.2018 10:00:00 14,2 10,4 2 1 11 6 SE 1013,9 0,0
13.11.2018 09:00:00 10,2 9,3 1 1 8 4 E 1015,2 0,0
13.11.2018 08:00:00 7,9 7,0 3 2 7 4 ENE 1016,0 0,0
13.11.2018 07:00:00 7,7 6,8 4 2 6 4 NE 1016,1 -
13.11.2018 06:00:00 7,9 7,0 3 1 5 3 NE 1015,9 0,0
13.11.2018 05:00:00 9,0 8,1 1 1 6 4 NNE 1015,7 0,0
13.11.2018 04:00:00 9,5 8,5 4 2 7 4 ENE 1015,4 0,0
13.11.2018 03:00:00 9,4 8,1 2 1 5 3 N 1015,4 0,0
13.11.2018 02:00:00 10,2 8,8 0 0 8 5 E 1015,2 0,0
13.11.2018 01:00:00 10,3 8,9 4 2 8 5 NE 1014,9 -
13.11.2018 00:00:00 - - 4 2 10 5 NE - 0,0
12.11.2018 23:00:00 - - 1 1 11 6 N - 0,0
12.11.2018 22:00:00 12,5 10,0 4 2 13 7 SSE 1014,4 0,0
12.11.2018 21:00:00 12,9 10,3 3 2 11 6 SSE 1014,4 0,0
12.11.2018 20:00:00 13,4 10,2 3 2 11 6 SSE 1014,1 0,0
12.11.2018 19:00:00 14,1 9,6 3 1 12 6 SSE 1013,9 -
12.11.2018 18:00:00 - - 6 3 16 8 S - 0,0
12.11.2018 17:00:00 - - 5 3 23 12 S - 0,0
12.11.2018 16:00:00 17,2 6,1 9 5 21 11 SSW 1013,0 0,0
12.11.2018 15:00:00 17,6 7,3 6 4 18 10 S 1012,9 0,0
12.11.2018 14:00:00 18,4 7,8 7 4 16 9 SSW 1012,7 0,0
12.11.2018 13:00:00 17,0 8,1 7 4 19 10 S 1012,8 -
12.11.2018 12:00:00 16,1 9,3 4 2 15 8 S 1013,3 0,0
12.11.2018 11:00:00 14,9 8,7 6 3 19 10 SSE 1013,6 0,0
12.11.2018 10:00:00 12,8 9,8 3 2 11 6 SSE 1014,3 0,0
12.11.2018 09:00:00 10,4 8,8 4 2 15 8 SSE 1015,1 0,0
12.11.2018 08:00:00 9,6 8,5 6 3 23 13 SSE 1015,4 0,0
12.11.2018 07:00:00 8,7 7,4 5 3 14 8 SSE 1015,7 -
12.11.2018 06:00:00 9,0 7,7 5 3 16 9 SSE 1015,7 0,0
12.11.2018 05:00:00 9,1 7,6 3 2 8 4 S 1015,7 0,0
12.11.2018 04:00:00 - - 4 2 12 6 SSE - 0,0
12.11.2018 03:00:00 - - 2 1 9 5 SSE - 0,0
12.11.2018 02:00:00 - - 0 0 3 2 SE - 0,0
12.11.2018 01:00:00 - - 0 0 8 4 N - -
12.11.2018 00:00:00 - - 2 1 11 6 WSW - 0,0
11.11.2018 23:00:00 11,8 9,2 1 0 8 4 SE 1014,7 0,0
11.11.2018 22:00:00 12,7 9,6 1 1 12 7 SSE 1014,4 0,0
11.11.2018 21:00:00 - - 6 3 14 8 SSE - 0,0
11.11.2018 20:00:00 - - 4 2 10 6 SSE - 0,0
11.11.2018 19:00:00 14,8 9,4 4 2 9 5 SSE 1013,7 -
11.11.2018 18:00:00 15,9 8,9 3 2 14 8 S 1013,4 0,0
11.11.2018 17:00:00 17,0 8,1 7 4 20 11 SW 1013,2 0,0
11.11.2018 16:00:00 17,2 8,9 12 7 24 13 SSW 1013,0 0,0
11.11.2018 15:00:00 16,4 8,4 9 5 18 10 SSW 1013,3 0,0
11.11.2018 14:00:00 15,9 8,9 9 5 20 11 SW 1013,3 0,0
11.11.2018 13:00:00 16,4 8,9 9 5 21 12 SSW 1013,2 -
11.11.2018 12:00:00 14,9 10,3 11 6 26 14 WSW 1013,7 0,0
11.11.2018 11:00:00 14,2 11,2 11 6 25 14 SW 1013,9 0,0
11.11.2018 10:00:00 13,0 11,1 10 5 21 11 WSW 1014,2 0,0
11.11.2018 09:00:00 12,4 11,3 8 5 17 9 SW 1014,2 0,0
11.11.2018 08:00:00 11,8 10,6 6 4 19 11 SW 1014,7 0,0
11.11.2018 07:00:00 11,8 10,6 10 6 16 9 WSW 1014,6 -
11.11.2018 06:00:00 - - 9 5 26 14 SW - 0,0
11.11.2018 05:00:00 11,5 10,4 9 5 26 14 SW 1014,8 0,0
11.11.2018 04:00:00 11,6 10,3 9 5 26 14 WSW 1014,6 0,0
11.11.2018 03:00:00 - - 13 7 25 14 WSW - 0,0
11.11.2018 02:00:00 - - 12 7 23 13 WSW - 0,0
11.11.2018 01:00:00 11,5 9,6 9 5 23 13 WSW 1014,8 -
11.11.2018 00:00:00 - - 16 9 29 16 WSW - 0,0
10.11.2018 23:00:00 - - 19 10 28 15 WSW - 0,0
10.11.2018 22:00:00 11,0 9,3 16 9 26 14 WSW 1014,8 0,0
10.11.2018 21:00:00 11,2 8,8 16 8 29 16 WSW 1014,7 0,0
10.11.2018 20:00:00 11,6 8,4 18 10 33 18 WSW 1014,8 0,0
10.11.2018 19:00:00 11,8 8,5 17 9 33 18 WSW 1014,6 -
10.11.2018 18:00:00 12,1 8,5 20 11 36 19 WSW 1014,6 0,0
10.11.2018 17:00:00 12,1 8,9 26 14 42 23 WSW 1014,6 0,0
10.11.2018 16:00:00 12,0 8,8 26 14 44 24 WSW 1014,7 0,0
10.11.2018 15:00:00 11,8 8,8 18 10 39 21 WSW 1014,7 0,0
10.11.2018 14:00:00 11,8 8,3 25 14 41 22 WSW 1014,6 0,0
10.11.2018 13:00:00 11,4 8,3 25 14 42 23 WSW 1014,9 -
10.11.2018 12:00:00 11,2 8,3 27 14 42 23 WSW 1014,8 0,0
10.11.2018 11:00:00 10,4 8,0 21 12 41 22 WSW 1015,0 0,0
10.11.2018 10:00:00 10,2 7,8 21 11 31 17 WSW 1015,2 0,0
10.11.2018 09:00:00 9,6 7,1 16 9 25 13 WSW 1015,4 0,0
10.11.2018 08:00:00 - - 14 8 23 12 WSW - 0,0
10.11.2018 07:00:00 9,1 6,7 15 8 25 13 WSW 1015,6 -
10.11.2018 06:00:00 9,2 6,4 15 8 24 13 WSW 1015,5 0,0
10.11.2018 05:00:00 9,1 6,2 16 9 28 15 WSW 1015,6 0,0
10.11.2018 04:00:00 - - 17 9 27 15 WSW - 0,0
10.11.2018 03:00:00 - - 17 9 27 15 WSW - 0,0
10.11.2018 02:00:00 - - 16 9 30 16 WSW - 0,0
10.11.2018 01:00:00 8,9 5,8 17 9 26 14 WSW 1015,8 -
10.11.2018 00:00:00 8,8 5,8 15 8 20 11 WSW 1015,7 0,0
09.11.2018 23:00:00 8,7 5,5 12 7 19 10 WSW 1015,7 0,0
09.11.2018 22:00:00 8,5 5,1 11 6 16 9 WSW 1015,8 0,0
09.11.2018 21:00:00 8,5 4,5 6 3 10 5 WSW 1015,7 0,0
09.11.2018 20:00:00 8,9 3,8 2 1 14 8 N 1015,7 0,0
09.11.2018 19:00:00 9,3 2,7 8 5 18 10 NNW 1015,6 -
09.11.2018 18:00:00 10,1 2,3 5 3 19 10 NNW 1015,2 0,0
09.11.2018 17:00:00 11,6 1,5 10 6 28 15 NNW 1014,8 0,0
09.11.2018 16:00:00 11,8 0,6 13 7 29 16 NNW 1014,8 0,0
09.11.2018 15:00:00 11,8 0,9 10 6 28 15 NNW 1014,7 0,0
09.11.2018 14:00:00 11,6 1,9 10 5 30 16 NNW 1014,7 0,0
09.11.2018 13:00:00 10,2 1,9 16 9 29 15 NW 1015,2 -
09.11.2018 12:00:00 10,1 3,4 8 5 28 15 NNW 1015,1 0,0
09.11.2018 11:00:00 - - 10 6 23 13 NNW - 0,0
09.11.2018 10:00:00 - - 0 0 9 5 NW - 0,0
09.11.2018 09:00:00 4,9 3,2 2 1 12 6 NNW 1017,0 0,0
09.11.2018 08:00:00 4,0 2,3 5 3 11 6 WSW 1017,4 0,0
09.11.2018 07:00:00 - - 3 2 15 8 NNW - -
09.11.2018 06:00:00 - - 11 6 22 12 NW - 0,0
09.11.2018 05:00:00 6,1 3,8 11 6 21 12 NW 1016,6 0,0
09.11.2018 04:00:00 6,7 3,8 11 6 30 16 NNW 1016,3 0,0
09.11.2018 03:00:00 6,6 3,6 8 4 24 13 NNW 1016,5 0,0
09.11.2018 02:00:00 7,0 3,4 8 5 20 11 NW 1016,1 0,0
09.11.2018 01:00:00 7,9 3,8 4 2 17 9 NNW 1016,1 -
09.11.2018 00:00:00 8,4 2,7 9 5 22 12 NNW 1016,0 0,0
08.11.2018 23:00:00 9,0 5,1 5 3 24 13 N 1015,6 0,1
08.11.2018 22:00:00 10,4 8,4 9 5 21 12 NNW 1015,0 0,1
08.11.2018 21:00:00 10,6 7,3 8 5 25 13 NNW 1015,1 0,0
08.11.2018 20:00:00 11,6 8,4 14 8 27 15 WSW 1014,7 0,6
08.11.2018 19:00:00 - - - - - - - - -
08.11.2018 18:00:00 12,3 10,9 9 5 20 11 S 1014,5 1,7
08.11.2018 17:00:00 12,4 10,6 6 4 15 8 SSE 1014,3 1,8
08.11.2018 16:00:00 12,9 9,9 4 2 15 8 S 1014,3 0,9
08.11.2018 15:00:00 13,5 7,3 9 5 19 10 SW 1014,2 0,0
08.11.2018 14:00:00 13,8 6,8 8 5 22 12 SSW 1014,0 0,0
08.11.2018 13:00:00 - - 10 5 24 13 S - -

tt = temperature
td = dewpoint
ff = wind speed
fx = gusts
dd = wind direction
ppp = reduced air pressure
rr = precipitation

Next stations